createdAt,value
2019-04-20T00:00:37.173Z,98.70
2019-04-20T00:03:05.555Z,99.10
2019-04-20T00:05:35.151Z,98.60
2019-04-20T00:08:09.128Z,98.50
2019-04-20T00:10:46.547Z,98.70
2019-04-20T00:13:20.779Z,98.40
2019-04-20T00:15:38.965Z,99.30
2019-04-20T00:18:11.479Z,99.90
2019-04-20T00:20:42.206Z,99.70
2019-04-20T00:23:31.588Z,99.90
2019-04-20T00:26:22.343Z,99.70
2019-04-20T00:29:02.973Z,99.90
2019-04-20T00:31:29.765Z,99.50
2019-04-20T00:33:56.085Z,98.50
2019-04-20T00:36:18.569Z,97.30
2019-04-20T00:38:51.979Z,97.10
2019-04-20T00:41:22.117Z,97.30
2019-04-20T00:43:51.143Z,97.70
2019-04-20T00:46:28.126Z,98.00
2019-04-20T00:49:00.794Z,98.40
2019-04-20T00:51:39.594Z,99.10
2019-04-20T00:53:57.287Z,99.90
2019-04-20T00:56:26.398Z,99.90
2019-04-20T00:59:10.553Z,99.90
2019-04-20T01:01:47.545Z,99.90
2019-04-20T01:04:32.795Z,99.90
2019-04-20T01:06:46.335Z,99.70
2019-04-20T01:09:20.299Z,99.90
2019-04-20T01:11:50.999Z,99.90
2019-04-20T01:14:30.285Z,99.90
2019-04-20T01:17:00.060Z,99.90
2019-04-20T01:19:22.981Z,99.90
2019-04-20T01:21:59.654Z,99.90
2019-04-20T01:24:31.367Z,99.90
2019-04-20T01:27:00.439Z,99.90
2019-04-20T01:29:36.869Z,99.60
2019-04-20T01:32:14.251Z,99.30
2019-04-20T01:34:41.854Z,99.70
2019-04-20T01:37:14.487Z,99.00
2019-04-20T01:39:38.137Z,99.00
2019-04-20T01:42:02.417Z,98.50
2019-04-20T01:44:38.532Z,98.70
2019-04-20T01:47:06.344Z,98.70
2019-04-20T01:49:36.863Z,98.70
2019-04-20T01:52:16.044Z,98.40
2019-04-20T01:54:56.451Z,98.50
2019-04-20T01:57:21.401Z,99.00
2019-04-20T01:59:55.262Z,99.30
2019-04-20T02:02:26.675Z,99.30
2019-04-20T02:05:04.434Z,99.10
2019-04-20T02:07:35.512Z,98.90
2019-04-20T02:10:03.661Z,97.70
2019-04-20T02:12:34.615Z,97.60
2019-04-20T02:15:04.785Z,98.00
2019-04-20T02:17:40.763Z,97.90
2019-04-20T02:20:31.898Z,97.10
2019-04-20T02:22:56.965Z,96.80
2019-04-20T02:25:10.140Z,96.50
2019-04-20T02:27:47.127Z,95.90
2019-04-20T02:30:51.756Z,95.90
2019-04-20T02:33:32.189Z,95.90
2019-04-20T02:35:54.215Z,95.90
2019-04-20T02:38:40.664Z,95.40
2019-04-20T02:40:57.737Z,95.10
2019-04-20T02:43:43.901Z,95.10
2019-04-20T02:46:15.320Z,95.10
2019-04-20T02:48:35.683Z,95.00
2019-04-20T02:51:05.772Z,95.30
2019-04-20T02:53:41.184Z,95.50
2019-04-20T02:56:17.319Z,95.30
2019-04-20T02:58:41.726Z,95.10
2019-04-20T03:01:05.153Z,95.80
2019-04-20T03:03:23.671Z,95.60
2019-04-20T03:05:59.765Z,95.90
2019-04-20T03:08:26.281Z,96.10
2019-04-20T03:11:09.333Z,97.30
2019-04-20T03:13:36.703Z,97.80
2019-04-20T03:16:04.471Z,99.90
2019-04-20T03:18:35.030Z,99.90
2019-04-20T03:21:12.870Z,99.90
2019-04-20T03:23:44.449Z,99.90
2019-04-20T03:26:19.007Z,99.90
2019-04-20T03:29:01.431Z,99.90
2019-04-20T03:36:59.254Z,99.90
2019-04-20T03:39:25.592Z,99.90
2019-04-20T03:41:44.401Z,99.90
2019-04-20T03:44:15.642Z,99.90
2019-04-20T03:46:47.918Z,99.90
2019-04-20T03:49:40.913Z,99.90
2019-04-20T03:52:03.668Z,99.90
2019-04-20T03:54:36.960Z,99.90
2019-04-20T03:57:17.321Z,99.90
2019-04-20T03:59:57.675Z,99.90
2019-04-20T04:02:57.697Z,99.90
2019-04-20T04:04:59.392Z,99.90
2019-04-20T04:07:22.572Z,99.90
2019-04-20T04:10:06.688Z,99.90
2019-04-20T04:12:43.037Z,99.90
2019-04-20T04:15:12.596Z,99.90
2019-04-20T04:17:44.985Z,99.90
2019-04-20T04:20:17.524Z,99.90
2019-04-20T04:23:08.400Z,99.90
2019-04-20T04:25:25.173Z,99.90
2019-04-20T04:28:06.347Z,99.90
2019-04-20T04:30:31.625Z,99.90
2019-04-20T04:33:33.990Z,99.90
2019-04-20T04:35:29.726Z,99.90
2019-04-20T04:38:06.905Z,99.90
2019-04-20T04:40:49.710Z,99.90
2019-04-20T04:43:18.707Z,99.90
2019-04-20T04:45:27.243Z,99.90
2019-04-20T04:47:55.679Z,99.90
2019-04-20T04:50:28.297Z,99.90
2019-04-20T04:53:04.589Z,99.90
2019-04-20T04:55:37.001Z,99.90
2019-04-20T04:58:00.190Z,99.90
2019-04-20T05:00:33.142Z,99.90
2019-04-20T05:03:22.127Z,99.90
2019-04-20T05:05:58.778Z,99.90
2019-04-20T05:08:18.062Z,99.90
2019-04-20T05:10:39.169Z,99.90
2019-04-20T05:13:09.183Z,99.90
2019-04-20T05:15:54.151Z,99.90
2019-04-20T05:18:34.440Z,99.90
2019-04-20T05:21:06.304Z,99.90
2019-04-20T05:23:35.346Z,99.90
2019-04-20T05:26:26.857Z,99.90
2019-04-20T05:28:53.295Z,99.90
2019-04-20T05:31:18.508Z,99.90
2019-04-20T05:34:14.408Z,99.90
2019-04-20T05:36:41.432Z,99.90
2019-04-20T05:39:26.809Z,99.90
2019-04-20T05:41:41.843Z,99.90
2019-04-20T05:44:10.365Z,99.90
2019-04-20T05:46:45.956Z,99.90
2019-04-20T05:49:21.973Z,99.90
2019-04-20T05:51:47.660Z,99.90
2019-04-20T05:54:18.981Z,99.90
2019-04-20T05:56:51.075Z,99.90
2019-04-20T05:59:19.149Z,99.90
2019-04-20T06:01:58.597Z,99.90
2019-04-20T06:04:41.022Z,99.90
2019-04-20T06:06:56.492Z,99.90
2019-04-20T06:09:30.801Z,99.90
2019-04-20T06:12:07.713Z,99.90
2019-04-20T06:14:19.262Z,99.80
2019-04-20T06:17:11.284Z,98.10
2019-04-20T06:19:42.204Z,97.30
2019-04-20T06:22:18.771Z,96.70
2019-04-20T06:25:14.511Z,94.30
2019-04-20T06:27:35.291Z,95.10
2019-04-20T06:30:01.443Z,95.30
2019-04-20T06:33:28.573Z,94.70
2019-04-20T06:36:06.042Z,94.40
2019-04-20T06:38:38.668Z,93.20
2019-04-20T06:40:53.961Z,92.80
2019-04-20T06:43:27.601Z,91.40
2019-04-20T06:46:01.396Z,93.10
2019-04-20T06:48:32.022Z,92.90
2019-04-20T06:50:48.274Z,93.00
2019-04-20T06:53:46.955Z,93.10
2019-04-20T06:56:05.324Z,93.30
2019-04-20T07:01:09.322Z,92.70
2019-04-20T07:03:51.307Z,91.00
2019-04-20T07:06:24.499Z,92.00
2019-04-20T07:08:55.424Z,91.60
2019-04-20T07:11:10.947Z,92.10
2019-04-20T07:13:33.082Z,90.90
2019-04-20T07:16:18.107Z,91.90
2019-04-20T07:19:01.321Z,91.40
2019-04-20T07:22:06.595Z,92.40
2019-04-20T07:24:24.939Z,91.90
2019-04-20T07:26:49.218Z,91.70
2019-04-20T07:29:26.970Z,92.90
2019-04-20T07:31:50.026Z,92.30
2019-04-20T07:34:23.381Z,92.60
2019-04-20T07:37:19.348Z,94.50
2019-04-20T07:39:28.107Z,93.60
2019-04-20T07:42:00.376Z,92.90
2019-04-20T07:44:36.396Z,91.80
2019-04-20T07:47:07.838Z,91.40
2019-04-20T07:49:30.136Z,92.50
2019-04-20T07:51:46.089Z,89.70
2019-04-20T07:54:40.138Z,91.50
2019-04-20T07:57:05.697Z,90.20
2019-04-20T07:59:28.882Z,92.80
2019-04-20T08:02:21.373Z,88.10
2019-04-20T08:04:42.499Z,91.40
2019-04-20T08:07:02.088Z,91.40
2019-04-20T08:09:34.928Z,91.10
2019-04-20T08:12:25.887Z,91.80
2019-04-20T08:14:56.806Z,95.10
2019-04-20T08:17:30.544Z,92.40
2019-04-20T08:19:52.858Z,94.20
2019-04-20T08:22:27.264Z,93.10
2019-04-20T08:24:52.350Z,94.70
2019-04-20T08:27:18.440Z,95.00
2019-04-20T08:30:12.503Z,97.10
2019-04-20T08:32:58.449Z,97.70
2019-04-20T08:35:39.759Z,98.20
2019-04-20T08:38:26.444Z,99.30
2019-04-20T08:40:37.411Z,98.90
2019-04-20T08:43:20.093Z,98.80
2019-04-20T08:45:46.731Z,99.90
2019-04-20T08:48:17.320Z,98.70
2019-04-20T08:50:44.993Z,96.60
2019-04-20T08:53:23.578Z,98.90
2019-04-20T08:55:42.526Z,97.10
2019-04-20T08:57:59.948Z,96.20
2019-04-20T09:00:35.774Z,92.10
2019-04-20T09:03:09.158Z,92.60
2019-04-20T09:05:42.494Z,93.20
2019-04-20T09:08:14.632Z,94.90
2019-04-20T09:10:49.579Z,95.10
2019-04-20T09:13:15.992Z,93.90
2019-04-20T09:15:36.525Z,91.00
2019-04-20T09:18:20.601Z,92.20
2019-04-20T09:20:50.718Z,91.30
2019-04-20T09:23:26.562Z,88.10
2019-04-20T09:26:05.926Z,83.00
2019-04-20T09:28:29.800Z,85.70
2019-04-20T09:31:19.875Z,78.30
2019-04-20T09:33:55.918Z,87.60
2019-04-20T09:36:40.838Z,79.10
2019-04-20T09:39:25.664Z,75.50
2019-04-20T09:42:00.614Z,73.20
2019-04-20T09:44:20.041Z,83.20
2019-04-20T09:46:55.012Z,79.30
2019-04-20T09:49:37.439Z,69.40
2019-04-20T09:52:09.549Z,71.90
2019-04-20T09:54:44.103Z,69.90
2019-04-20T09:57:13.309Z,71.40
2019-04-20T09:59:44.780Z,75.80
2019-04-20T10:02:06.581Z,76.80
2019-04-20T10:04:27.393Z,77.10
2019-04-20T10:07:02.562Z,79.80
2019-04-20T10:09:32.574Z,73.80
2019-04-20T10:11:59.679Z,66.70
2019-04-20T10:14:29.215Z,78.10
2019-04-20T10:16:59.956Z,80.70
2019-04-20T10:19:33.663Z,77.60
2019-04-20T10:22:02.517Z,76.70
2019-04-20T10:24:32.790Z,76.30
2019-04-20T10:27:03.067Z,77.10
2019-04-20T10:29:33.670Z,67.10
2019-04-20T10:32:08.829Z,73.70
2019-04-20T10:34:34.730Z,75.40
2019-04-20T10:37:06.087Z,72.90
2019-04-20T10:39:38.481Z,70.00
2019-04-20T10:42:08.240Z,73.70
2019-04-20T10:44:38.661Z,74.40
2019-04-20T10:47:09.183Z,70.70
2019-04-20T10:49:40.830Z,64.10
2019-04-20T10:52:11.595Z,74.70
2019-04-20T10:54:42.583Z,70.20
2019-04-20T10:57:13.305Z,69.30
2019-04-20T10:59:43.684Z,72.10
2019-04-20T11:02:13.984Z,73.40
2019-04-20T11:04:46.480Z,67.50
2019-04-20T11:07:16.598Z,71.40
2019-04-20T11:09:47.145Z,70.00
2019-04-20T11:12:16.731Z,69.20
2019-04-20T11:14:46.163Z,65.30
2019-04-20T11:17:16.369Z,67.80
2019-04-20T11:19:47.442Z,65.10
2019-04-20T11:22:17.009Z,60.00
2019-04-20T11:24:46.474Z,58.00
2019-04-20T11:27:16.315Z,61.40
2019-04-20T11:29:46.378Z,61.60
2019-04-20T11:32:16.167Z,64.40
2019-04-20T11:34:47.035Z,61.60
2019-04-20T11:37:17.248Z,58.90
2019-04-20T11:39:47.343Z,61.10
2019-04-20T11:42:17.366Z,61.60
2019-04-20T11:44:48.818Z,65.10
2019-04-20T11:47:18.902Z,56.10
2019-04-20T11:49:49.487Z,59.20
2019-04-20T11:52:22.841Z,57.90
2019-04-20T11:54:52.508Z,60.70
2019-04-20T11:57:22.191Z,53.60
2019-04-20T11:59:52.894Z,50.40
2019-04-20T12:02:30.288Z,57.10
2019-04-20T12:05:10.093Z,59.80
2019-04-20T12:07:33.715Z,59.60
2019-04-20T12:10:09.040Z,58.70
2019-04-20T12:12:41.549Z,51.60
2019-04-20T12:15:06.583Z,49.50
2019-04-20T12:17:36.070Z,55.90
2019-04-20T12:20:08.076Z,56.20
2019-04-20T12:22:37.691Z,54.40
2019-04-20T12:25:07.911Z,55.80
2019-04-20T12:27:41.945Z,55.00
2019-04-20T12:30:10.499Z,54.50
2019-04-20T12:32:42.934Z,52.10
2019-04-20T12:35:12.142Z,54.20
2019-04-20T12:37:43.046Z,54.20
2019-04-20T12:40:14.238Z,54.40
2019-04-20T12:42:44.243Z,45.80
2019-04-20T12:45:15.699Z,52.40
2019-04-20T12:47:47.006Z,51.30
2019-04-20T12:50:17.373Z,54.40
2019-04-20T12:52:48.307Z,54.40
2019-04-20T12:55:18.823Z,54.00
2019-04-20T12:57:48.478Z,52.40
2019-04-20T13:00:19.522Z,50.00
2019-04-20T13:02:49.589Z,50.80
2019-04-20T13:05:19.557Z,58.30
2019-04-20T13:07:55.895Z,54.50
2019-04-20T13:10:21.456Z,50.80
2019-04-20T13:12:52.624Z,52.80
2019-04-20T13:15:28.925Z,44.90
2019-04-20T13:17:59.017Z,50.80
2019-04-20T13:20:30.136Z,45.50
2019-04-20T13:23:02.625Z,55.30
2019-04-20T13:25:31.098Z,50.30
2019-04-20T13:28:01.018Z,49.50
2019-04-20T13:30:32.213Z,51.40
2019-04-20T13:33:02.114Z,48.40
2019-04-20T13:35:32.335Z,45.00
2019-04-20T13:38:05.475Z,49.10
2019-04-20T13:40:35.705Z,44.50
2019-04-20T13:43:05.890Z,45.60
2019-04-20T13:45:37.143Z,46.40
2019-04-20T13:48:08.789Z,43.90
2019-04-20T13:50:40.068Z,52.90
2019-04-20T13:53:11.322Z,51.90
2019-04-20T13:55:42.360Z,46.10
2019-04-20T13:58:31.807Z,46.10
2019-04-20T14:01:09.340Z,49.30
2019-04-20T14:03:40.787Z,46.80
2019-04-20T14:06:11.077Z,48.90
2019-04-20T14:08:41.734Z,45.50
2019-04-20T14:11:11.876Z,44.30
2019-04-20T14:13:47.198Z,48.60
2019-04-20T14:16:14.397Z,43.80
2019-04-20T14:18:45.027Z,39.60
2019-04-20T14:21:16.367Z,42.30
2019-04-20T14:23:46.529Z,42.80
2019-04-20T14:26:16.794Z,42.20
2019-04-20T14:28:47.051Z,45.30
2019-04-20T14:31:17.141Z,47.50
2019-04-20T14:33:46.822Z,48.50
2019-04-20T14:36:16.939Z,45.20
2019-04-20T14:38:48.179Z,39.60
2019-04-20T14:41:22.345Z,41.50
2019-04-20T14:43:53.072Z,40.30
2019-04-20T14:46:23.027Z,42.10
2019-04-20T14:48:52.653Z,46.20
2019-04-20T14:51:23.632Z,43.60
2019-04-20T14:53:53.770Z,41.20
2019-04-20T14:56:23.540Z,46.30
2019-04-20T14:58:57.679Z,40.40
2019-04-20T15:01:34.794Z,44.10
2019-04-20T15:04:10.000Z,45.30
2019-04-20T15:06:37.980Z,38.10
2019-04-20T15:09:08.798Z,44.80
2019-04-20T15:11:41.726Z,43.90
2019-04-20T15:14:11.034Z,42.10
2019-04-20T15:16:40.604Z,45.00
2019-04-20T15:19:11.874Z,43.40
2019-04-20T15:21:42.991Z,44.20
2019-04-20T15:24:13.378Z,47.00
2019-04-20T15:26:42.930Z,42.80
2019-04-20T15:29:12.545Z,46.00
2019-04-20T15:31:42.055Z,40.40
2019-04-20T15:34:12.830Z,45.40
2019-04-20T15:36:52.006Z,38.20
2019-04-20T15:39:21.651Z,45.10
2019-04-20T15:41:51.491Z,42.10
2019-04-20T15:44:21.618Z,43.40
2019-04-20T15:46:51.169Z,39.70
2019-04-20T15:49:22.003Z,42.30
2019-04-20T15:51:52.167Z,41.90
2019-04-20T15:54:23.172Z,40.00
2019-04-20T15:56:58.792Z,41.50
2019-04-20T15:59:24.792Z,43.80
2019-04-20T16:02:03.014Z,41.20
2019-04-20T16:04:41.132Z,43.60
2019-04-20T16:07:09.064Z,45.20
2019-04-20T16:09:39.899Z,43.20
2019-04-20T16:12:10.930Z,43.00
2019-04-20T16:14:41.653Z,44.10
2019-04-20T16:17:12.495Z,42.80
2019-04-20T16:19:50.957Z,44.30
2019-04-20T16:22:15.493Z,42.40
2019-04-20T16:24:49.444Z,42.60
2019-04-20T16:27:29.685Z,44.20
2019-04-20T16:29:59.910Z,42.40
2019-04-20T16:32:30.381Z,44.20
2019-04-20T16:35:00.303Z,44.10
2019-04-20T16:37:31.082Z,42.00
2019-04-20T16:40:01.094Z,39.80
2019-04-20T16:42:34.177Z,41.00
2019-04-20T16:45:05.413Z,41.80
2019-04-20T16:47:36.755Z,40.10
2019-04-20T16:50:08.751Z,37.50
2019-04-20T16:52:38.978Z,38.20
2019-04-20T16:55:11.322Z,37.10
2019-04-20T16:57:41.702Z,39.00
2019-04-20T17:00:11.956Z,39.20
2019-04-20T17:02:42.399Z,42.40
2019-04-20T17:05:13.399Z,41.30
2019-04-20T17:07:44.988Z,39.40
2019-04-20T17:10:16.209Z,38.60
2019-04-20T17:12:46.062Z,40.10
2019-04-20T17:15:16.274Z,38.60
2019-04-20T17:17:48.141Z,42.40
2019-04-20T17:20:17.731Z,43.40
2019-04-20T17:22:48.509Z,37.40
2019-04-20T17:25:19.637Z,38.30
2019-04-20T17:27:55.065Z,42.40
2019-04-20T17:30:33.660Z,40.80
2019-04-20T17:33:06.166Z,41.40
2019-04-20T17:35:47.800Z,42.20
2019-04-20T17:38:08.972Z,41.40
2019-04-20T17:40:56.363Z,43.30
2019-04-20T17:43:19.763Z,43.30
2019-04-20T17:45:50.453Z,40.10
2019-04-20T17:48:26.994Z,41.80
2019-04-20T17:53:54.621Z,43.10
2019-04-20T17:56:20.197Z,40.20
2019-04-20T17:58:50.233Z,42.90
2019-04-20T18:01:35.751Z,42.00
2019-04-20T18:04:27.794Z,41.80
2019-04-20T18:06:44.123Z,44.30
2019-04-20T18:09:11.731Z,43.40
2019-04-20T18:11:40.323Z,46.00
2019-04-20T18:14:25.182Z,44.10
2019-04-20T18:17:03.475Z,45.70
2019-04-20T18:19:22.878Z,46.60
2019-04-20T18:21:51.665Z,46.50
2019-04-20T18:24:42.332Z,47.00
2019-04-20T18:27:23.269Z,48.40
2019-04-20T18:29:43.631Z,48.50
2019-04-20T18:32:02.043Z,50.10
2019-04-20T18:34:34.314Z,48.30
2019-04-20T18:37:06.467Z,47.60
2019-04-20T18:39:45.255Z,49.30
2019-04-20T18:42:13.084Z,48.20
2019-04-20T18:44:56.846Z,48.30
2019-04-20T18:47:31.194Z,49.80
2019-04-20T18:49:50.487Z,50.80
2019-04-20T18:52:11.926Z,51.60
2019-04-20T18:54:44.989Z,51.40
2019-04-20T18:57:17.998Z,52.70
2019-04-20T18:59:49.224Z,52.90
2019-04-20T19:02:20.006Z,55.40
2019-04-20T19:04:45.930Z,55.30
2019-04-20T19:07:15.321Z,56.80
2019-04-20T19:09:44.917Z,59.50
2019-04-20T19:12:16.592Z,59.20
2019-04-20T19:15:12.049Z,58.90
2019-04-20T19:17:45.194Z,59.90
2019-04-20T19:20:14.041Z,62.20
2019-04-20T19:22:44.122Z,64.10
2019-04-20T19:25:19.827Z,64.80
2019-04-20T19:27:50.857Z,68.10
2019-04-20T19:30:27.425Z,69.30
2019-04-20T19:33:04.961Z,72.10
2019-04-20T19:35:33.555Z,71.30
2019-04-20T19:38:03.369Z,71.00
2019-04-20T19:40:33.636Z,74.90
2019-04-20T19:43:03.531Z,75.40
2019-04-20T19:45:46.298Z,78.60
2019-04-20T19:48:12.278Z,81.60
2019-04-20T19:50:48.486Z,81.70
2019-04-20T19:53:21.171Z,84.00
2019-04-20T19:55:45.186Z,83.30
2019-04-20T19:58:13.965Z,78.40
2019-04-20T20:00:43.896Z,77.00
2019-04-20T20:03:15.385Z,74.80
2019-04-20T20:05:48.404Z,77.30
2019-04-20T20:08:20.978Z,80.70
2019-04-20T20:10:48.453Z,83.50
2019-04-20T20:13:18.358Z,83.70
2019-04-20T20:16:02.371Z,85.00
2019-04-20T20:18:39.143Z,80.70
2019-04-20T20:21:12.223Z,80.60
2019-04-20T20:23:30.004Z,82.50
2019-04-20T20:26:02.402Z,86.40
2019-04-20T20:28:40.404Z,86.90
2019-04-20T20:31:12.800Z,75.80
2019-04-20T20:33:49.425Z,79.90
2019-04-20T20:36:12.643Z,83.60
2019-04-20T20:38:40.034Z,87.50
2019-04-20T20:41:17.386Z,88.00
2019-04-20T20:43:51.181Z,89.70
2019-04-20T20:46:19.707Z,89.00
2019-04-20T20:49:06.312Z,90.90
2019-04-20T20:51:41.072Z,91.00
2019-04-20T20:53:54.377Z,90.90
2019-04-20T20:56:22.081Z,91.90
2019-04-20T20:58:57.312Z,92.30
2019-04-20T21:01:24.945Z,91.60
2019-04-20T21:03:52.163Z,92.10
2019-04-20T21:06:20.253Z,92.10
2019-04-20T21:08:54.249Z,95.40
2019-04-20T21:11:26.171Z,94.20
2019-04-20T21:13:52.848Z,94.20
2019-04-20T21:16:30.910Z,94.40
2019-04-20T21:19:13.265Z,94.10
2019-04-20T21:21:38.257Z,94.70
2019-04-20T21:24:10.058Z,94.60
2019-04-20T21:26:37.553Z,96.00
2019-04-20T21:29:06.037Z,96.90
2019-04-20T21:31:36.649Z,98.30
2019-04-20T21:34:13.187Z,99.10
2019-04-20T21:36:38.844Z,99.90
2019-04-20T21:39:16.174Z,99.90
2019-04-20T21:41:47.762Z,99.90
2019-04-20T21:44:15.644Z,99.90
2019-04-20T21:46:48.726Z,99.90
2019-04-20T21:49:32.279Z,99.90
2019-04-20T21:51:55.415Z,99.90
2019-04-20T21:54:18.304Z,99.90
2019-04-20T21:56:53.865Z,99.90
2019-04-20T21:59:27.230Z,99.90
2019-04-20T22:01:59.376Z,99.90
2019-04-20T22:04:22.905Z,99.90
2019-04-20T22:06:52.353Z,99.90
2019-04-20T22:09:27.138Z,99.90
2019-04-20T22:11:53.897Z,99.90
2019-04-20T22:14:26.278Z,99.90
2019-04-20T22:16:56.875Z,99.90
2019-04-20T22:19:36.721Z,99.90
2019-04-20T22:22:05.486Z,99.90
2019-04-20T22:24:42.416Z,99.90
2019-04-20T22:27:06.312Z,99.90
2019-04-20T22:29:32.172Z,99.90
2019-04-20T22:32:07.187Z,99.90
2019-04-20T22:34:33.695Z,99.90
2019-04-20T22:37:04.439Z,99.90
2019-04-20T22:39:42.109Z,99.90
2019-04-20T22:42:14.281Z,99.90
2019-04-20T22:44:41.320Z,99.90
2019-04-20T22:47:17.162Z,99.90
2019-04-20T22:49:52.539Z,99.90
2019-04-20T22:52:30.585Z,99.90
2019-04-20T22:55:01.369Z,99.90
2019-04-20T22:57:31.620Z,99.90
2019-04-20T22:59:56.869Z,99.90
2019-04-20T23:02:21.208Z,99.90
2019-04-20T23:04:48.914Z,99.90
2019-04-20T23:07:18.850Z,99.90
2019-04-20T23:09:54.147Z,99.90
2019-04-20T23:12:23.272Z,99.90
2019-04-20T23:14:52.192Z,99.90
2019-04-20T23:17:29.513Z,99.90
2019-04-20T23:19:57.476Z,99.90
2019-04-20T23:22:33.656Z,99.90
2019-04-20T23:24:57.431Z,99.90
2019-04-20T23:27:31.523Z,99.90
2019-04-20T23:29:58.661Z,99.90
2019-04-20T23:32:30.068Z,99.90
2019-04-20T23:35:04.887Z,99.90
2019-04-20T23:37:33.729Z,99.90
2019-04-20T23:40:02.838Z,99.90
2019-04-20T23:42:53.643Z,99.90
2019-04-20T23:45:31.433Z,99.90
2019-04-20T23:48:07.141Z,99.90
2019-04-20T23:50:54.446Z,99.90
2019-04-20T23:53:27.355Z,99.90
2019-04-20T23:55:41.367Z,99.90
2019-04-20T23:58:12.963Z,99.90
